Time;durP1;ratioP1;P1;durP2;ratioP2;P2;SDS_P1;SDS_P2;PMS_P1;PMS_P2;Temp;Humidity;BMP_temperature;BMP_pressure;BME280_temperature;BME280_humidity;BME280_pressure;Samples;Min_cycle;Max_cycle;Signal;HPM_P1;HPM_P2
2021/06/05 00:00:21;;;;;;;9.40;8.50;;;17.00;99.90;;;;;;5056292;28;20508;-84
2021/06/05 00:02:47;;;;;;;9.30;8.50;;;16.90;99.90;;;;;;5074078;28;20262;-83
2021/06/05 00:05:13;;;;;;;8.90;8.10;;;17.00;99.90;;;;;;5073810;28;20542;-84
2021/06/05 00:07:39;;;;;;;9.03;8.13;;;17.00;99.90;;;;;;5073982;28;20174;-85
2021/06/05 00:10:09;;;;;;;9.03;8.23;;;17.10;99.90;;;;;;5073481;28;20417;-82
2021/06/05 00:12:36;;;;;;;9.37;8.63;;;17.10;99.90;;;;;;5071350;28;20187;-84
2021/06/05 00:15:08;;;;;;;8.43;7.53;;;17.10;99.90;;;;;;5073742;28;20441;-84
2021/06/05 00:17:34;;;;;;;8.83;7.40;;;17.20;99.90;;;;;;5070550;28;20444;-84
2021/06/05 00:19:59;;;;;;;8.83;8.03;;;17.20;99.90;;;;;;5073638;28;20948;-83
2021/06/05 00:22:25;;;;;;;8.40;7.70;;;17.20;99.90;;;;;;5075056;28;20254;-82
2021/06/05 00:24:50;;;;;;;9.03;8.13;;;17.20;99.90;;;;;;5077479;28;20295;-85
2021/06/05 00:27:16;;;;;;;7.97;7.27;;;17.20;99.90;;;;;;5060120;28;20170;-85
2021/06/05 00:29:42;;;;;;;7.83;7.00;;;17.10;99.90;;;;;;5057367;28;20608;-86
2021/06/05 00:32:07;;;;;;;7.40;6.83;;;17.20;99.90;;;;;;5074249;28;20171;-83
2021/06/05 00:34:33;;;;;;;7.90;6.90;;;17.20;99.90;;;;;;5074236;28;20205;-83
2021/06/05 00:36:59;;;;;;;7.83;7.20;;;17.30;99.90;;;;;;5074352;28;20631;-90
2021/06/05 00:39:24;;;;;;;9.40;6.93;;;17.20;99.90;;;;;;5073889;28;20171;-85
2021/06/05 00:41:50;;;;;;;7.80;7.00;;;17.20;99.90;;;;;;5073956;28;20659;-85
2021/06/05 00:44:16;;;;;;;8.07;7.47;;;17.00;99.90;;;;;;5073743;28;20219;-85
2021/06/05 00:46:42;;;;;;;7.20;6.50;;;17.10;99.90;;;;;;5073629;28;20166;-84
2021/06/05 00:49:09;;;;;;;6.90;6.23;;;17.10;99.90;;;;;;5055889;28;20416;-85
2021/06/05 00:51:45;;;;;;;7.10;6.50;;;17.10;99.90;;;;;;5055658;28;20208;-85
2021/06/05 00:54:14;;;;;;;7.37;6.77;;;17.00;99.90;;;;;;5073104;28;20499;-84
2021/06/05 00:56:42;;;;;;;7.80;7.17;;;16.90;99.90;;;;;;5073407;28;20417;-83
2021/06/05 00:59:08;;;;;;;8.17;7.47;;;16.90;99.90;;;;;;5073466;28;20424;-83
2021/06/05 01:01:34;;;;;;;8.00;7.20;;;16.80;99.90;;;;;;5073365;28;20410;-83
2021/06/05 01:04:00;;;;;;;7.80;7.17;;;16.70;99.90;;;;;;5073263;28;20610;-83
2021/06/05 01:06:26;;;;;;;7.27;6.57;;;16.80;99.90;;;;;;5055326;28;20428;-83
2021/06/05 01:09:10;;;;;;;8.07;7.20;;;16.90;99.90;;;;;;5072913;28;20923;-82
2021/06/05 01:11:47;;;;;;;8.77;7.97;;;16.90;99.90;;;;;;5072864;28;20276;-84
2021/06/05 01:14:20;;;;;;;8.37;7.67;;;16.80;99.90;;;;;;5073161;28;20407;-83
2021/06/05 01:16:48;;;;;;;8.10;7.40;;;16.70;99.90;;;;;;5073150;28;20400;-83
2021/06/05 01:19:46;;;;;;;7.63;6.80;;;16.70;99.90;;;;;;5073218;28;20446;-83
2021/06/05 01:22:28;;;;;;;7.60;6.90;;;16.60;99.90;;;;;;5066235;28;20988;-86
2021/06/05 01:25:24;;;;;;;7.70;6.90;;;16.50;99.90;;;;;;5072686;28;20465;-83
2021/06/05 01:28:00;;;;;;;7.30;6.63;;;16.40;99.90;;;;;;5072573;28;20999;-84
2021/06/05 01:30:32;;;;;;;8.07;6.93;;;16.30;99.90;;;;;;5072914;28;20749;-85
2021/06/05 01:32:59;;;;;;;8.53;7.73;;;16.30;99.90;;;;;;5073225;28;20774;-86
2021/06/05 01:35:26;;;;;;;8.57;7.87;;;16.30;99.90;;;;;;5055092;28;20417;-84
2021/06/05 01:37:54;;;;;;;7.83;7.13;;;16.30;99.90;;;;;;5072730;28;20410;-84
2021/06/05 01:40:21;;;;;;;9.37;8.43;;;16.20;99.90;;;;;;5072728;28;20492;-85
2021/06/05 01:42:47;;;;;;;8.53;7.23;;;16.20;99.90;;;;;;5072974;28;20929;-85
2021/06/05 01:45:19;;;;;;;8.47;7.67;;;16.30;99.90;;;;;;5072919;28;20558;-84
2021/06/05 01:47:45;;;;;;;9.30;8.50;;;16.30;99.90;;;;;;5054912;28;20176;-86
2021/06/05 01:50:13;;;;;;;8.40;7.70;;;16.20;99.90;;;;;;5072773;28;20481;-85
2021/06/05 01:52:41;;;;;;;9.40;8.57;;;16.00;99.90;;;;;;5054464;28;20454;-85
2021/06/05 01:55:13;;;;;;;9.03;8.23;;;16.00;99.90;;;;;;5072775;28;20810;-84
2021/06/05 01:57:46;;;;;;;8.43;7.73;;;15.90;99.90;;;;;;5072729;28;20439;-85
2021/06/05 02:00:18;;;;;;;9.17;8.30;;;15.90;99.90;;;;;;5072705;28;20659;-84
2021/06/05 02:02:43;;;;;;;10.73;9.83;;;15.90;99.90;;;;;;5072835;28;20737;-85
2021/06/05 02:05:09;;;;;;;10.37;9.13;;;15.90;99.90;;;;;;5072689;28;20993;-85
2021/06/05 02:07:35;;;;;;;9.33;8.53;;;15.80;99.90;;;;;;5072308;28;20170;-84
2021/06/05 02:10:01;;;;;;;9.17;8.37;;;15.60;99.90;;;;;;5054580;28;20966;-84
2021/06/05 02:12:31;;;;;;;7.70;7.00;;;15.70;99.90;;;;;;5058806;28;20218;-85
2021/06/05 02:15:06;;;;;;;9.47;8.60;;;15.60;99.90;;;;;;5052998;28;20219;-86
2021/06/05 02:17:36;;;;;;;9.23;7.93;;;15.70;99.90;;;;;;5052925;28;20750;-87
2021/06/05 02:20:14;;;;;;;8.70;7.90;;;15.70;99.90;;;;;;5052780;28;20420;-85
2021/06/05 02:22:43;;;;;;;8.73;7.93;;;15.60;99.90;;;;;;5052508;28;20504;-85
2021/06/05 02:25:11;;;;;;;8.37;7.67;;;15.50;99.90;;;;;;5052722;28;20481;-85
2021/06/05 02:27:39;;;;;;;8.93;8.13;;;15.50;99.90;;;;;;5035185;28;20499;-83
2021/06/05 02:30:18;;;;;;;9.37;8.57;;;15.40;99.90;;;;;;5052750;28;20420;-84
2021/06/05 02:32:44;;;;;;;9.50;8.60;;;15.40;99.90;;;;;;5034832;28;20444;-85
2021/06/05 02:35:14;;;;;;;10.27;9.37;;;15.40;99.90;;;;;;5052512;28;20501;-85
2021/06/05 02:37:40;;;;;;;10.30;9.23;;;15.30;99.90;;;;;;5052289;28;20228;-85
2021/06/05 02:40:13;;;;;;;10.10;9.17;;;15.30;99.90;;;;;;5054780;28;20892;-85
2021/06/05 02:42:40;;;;;;;9.33;8.60;;;15.30;99.90;;;;;;5056481;28;20181;-85
2021/06/05 02:45:14;;;;;;;9.20;8.20;;;15.20;99.90;;;;;;5056130;28;20468;-87
2021/06/05 02:47:51;;;;;;;9.37;8.57;;;15.20;99.90;;;;;;5056164;28;20404;-85
2021/06/05 02:50:18;;;;;;;9.40;8.50;;;15.20;99.90;;;;;;5056539;28;20469;-83
2021/06/05 02:52:43;;;;;;;9.50;8.70;;;15.30;99.90;;;;;;5055953;28;20741;-85
2021/06/05 02:55:12;;;;;;;9.63;8.70;;;15.30;99.90;;;;;;5056438;28;20412;-85
2021/06/05 02:57:38;;;;;;;9.80;8.97;;;15.30;99.90;;;;;;5056121;28;20197;-84
2021/06/05 03:00:09;;;;;;;10.00;9.00;;;15.20;99.90;;;;;;5055983;28;20931;-83
2021/06/05 03:02:35;;;;;;;9.33;8.07;;;15.20;99.90;;;;;;5055945;28;20218;-84
2021/06/05 03:05:01;;;;;;;7.93;7.13;;;15.20;99.90;;;;;;5055860;28;20987;-84
2021/06/05 03:07:27;;;;;;;11.80;9.97;;;15.20;99.90;;;;;;5055586;28;20168;-84
2021/06/05 03:09:52;;;;;;;10.90;9.80;;;15.20;99.90;;;;;;5055835;28;20162;-85
2021/06/05 03:12:19;;;;;;;9.70;8.70;;;15.30;99.90;;;;;;5075232;28;20216;-84
2021/06/05 03:14:45;;;;;;;10.77;8.63;;;15.30;99.90;;;;;;5075596;28;20178;-84
2021/06/05 03:17:10;;;;;;;9.57;8.77;;;15.30;99.90;;;;;;5075680;28;20499;-86
2021/06/05 03:19:36;;;;;;;9.40;8.53;;;15.30;99.90;;;;;;5075702;28;20173;-82
2021/06/05 03:22:04;;;;;;;11.50;10.10;;;15.40;99.90;;;;;;5074303;28;20178;-84
2021/06/05 03:24:30;;;;;;;10.53;9.63;;;15.30;99.90;;;;;;5075216;28;20525;-84
2021/06/05 03:26:57;;;;;;;10.90;8.50;;;15.30;99.90;;;;;;5075580;28;20498;-85
2021/06/05 03:29:23;;;;;;;9.33;8.33;;;15.30;99.90;;;;;;5075322;28;20438;-85
2021/06/05 03:31:49;;;;;;;9.80;8.90;;;15.30;99.90;;;;;;5075354;28;20411;-83
2021/06/05 03:34:15;;;;;;;8.70;7.90;;;15.30;99.90;;;;;;5075368;28;20425;-83
2021/06/05 03:36:41;;;;;;;8.40;7.60;;;15.20;99.90;;;;;;5074107;28;20518;-83
2021/06/05 03:39:07;;;;;;;9.83;8.93;;;15.20;99.90;;;;;;5073772;28;20707;-84
2021/06/05 03:41:34;;;;;;;9.50;8.70;;;15.20;99.90;;;;;;5075351;28;20263;-83
2021/06/05 03:44:00;;;;;;;9.37;8.57;;;15.20;99.90;;;;;;5075039;28;20498;-84
2021/06/05 03:46:26;;;;;;;8.53;7.83;;;15.10;99.90;;;;;;5075061;28;20453;-85
2021/06/05 03:48:51;;;;;;;9.63;8.50;;;15.10;99.90;;;;;;5075024;28;20222;-82
2021/06/05 03:51:17;;;;;;;8.60;7.83;;;15.20;99.90;;;;;;5074219;28;20644;-85
2021/06/05 03:53:43;;;;;;;11.17;10.10;;;15.20;99.90;;;;;;5074739;28;20247;-85
2021/06/05 03:56:08;;;;;;;10.30;9.40;;;15.10;99.90;;;;;;5074972;28;20179;-85
2021/06/05 03:58:41;;;;;;;9.37;8.40;;;15.10;99.90;;;;;;5073637;28;20223;-86
2021/06/05 04:01:16;;;;;;;9.53;8.63;;;15.10;99.90;;;;;;5074947;28;20343;-86
2021/06/05 04:03:42;;;;;;;8.90;8.10;;;15.10;99.90;;;;;;5074747;28;20489;-85
2021/06/05 04:06:08;;;;;;;10.00;8.43;;;15.20;99.90;;;;;;5074747;28;20851;-85
2021/06/05 04:08:34;;;;;;;9.20;8.40;;;15.30;99.90;;;;;;5074427;28;20529;-85
2021/06/05 04:11:00;;;;;;;9.30;8.50;;;15.30;99.90;;;;;;5074404;28;20457;-86
2021/06/05 04:13:26;;;;;;;10.07;9.07;;;15.30;99.90;;;;;;5073314;28;20177;-85
2021/06/05 04:15:51;;;;;;;8.90;8.03;;;15.60;99.90;;;;;;5074582;28;20502;-86
2021/06/05 04:18:24;;;;;;;8.87;8.07;;;15.60;99.90;;;;;;5074557;28;20636;-86
2021/06/05 04:20:50;;;;;;;9.37;8.47;;;15.80;99.90;;;;;;5074483;28;20179;-85
2021/06/05 04:23:16;;;;;;;9.40;8.60;;;16.00;99.90;;;;;;5074075;28;20482;-86
2021/06/05 04:25:42;;;;;;;8.60;7.90;;;16.30;99.90;;;;;;5074255;28;20478;-86
2021/06/05 04:28:11;;;;;;;10.40;9.40;;;16.40;99.90;;;;;;5072988;28;20776;-86
2021/06/05 04:30:38;;;;;;;7.70;6.97;;;16.60;99.90;;;;;;5074252;28;20423;-85
2021/06/05 04:33:04;;;;;;;7.70;7.00;;;16.80;99.90;;;;;;5074230;28;20922;-86
2021/06/05 04:35:30;;;;;;;8.17;7.37;;;16.90;99.90;;;;;;5074130;28;20502;-85
2021/06/05 04:37:56;;;;;;;8.03;7.43;;;17.00;99.90;;;;;;5073665;28;20442;-87
2021/06/05 04:40:24;;;;;;;7.50;6.80;;;17.00;99.90;;;;;;5072753;28;20230;-85
2021/06/05 04:42:50;;;;;;;9.17;7.40;;;17.10;99.90;;;;;;5073979;28;20440;-84
2021/06/05 04:45:17;;;;;;;8.00;7.17;;;17.30;99.90;;;;;;5073836;28;20582;-88
2021/06/05 04:47:43;;;;;;;8.63;7.00;;;17.40;99.90;;;;;;5072601;28;20776;-85
2021/06/05 04:50:10;;;;;;;7.73;7.00;;;17.50;99.90;;;;;;5073874;28;20446;-87
2021/06/05 04:52:36;;;;;;;7.90;7.20;;;17.40;99.90;;;;;;5073467;28;20174;-87
2021/06/05 04:55:04;;;;;;;7.47;6.80;;;17.50;99.90;;;;;;5091809;28;20489;-85
2021/06/05 04:57:30;;;;;;;8.00;6.87;;;17.60;99.90;;;;;;5093715;28;20911;-85
2021/06/05 04:59:55;;;;;;;8.77;7.13;;;17.70;99.90;;;;;;5093662;28;20415;-86
2021/06/05 05:02:21;;;;;;;8.40;7.70;;;17.70;99.90;;;;;;5093556;28;20252;-84
2021/06/05 05:04:46;;;;;;;7.53;6.80;;;17.80;99.90;;;;;;5093486;28;20301;-82
2021/06/05 05:07:14;;;;;;;7.97;7.13;;;17.90;99.90;;;;;;5093304;28;20212;-84
2021/06/05 05:09:40;;;;;;;7.53;6.67;;;18.00;99.90;;;;;;5092305;28;20178;-84
2021/06/05 05:12:06;;;;;;;7.63;6.43;;;18.00;99.90;;;;;;5075269;28;20470;-82
2021/06/05 05:14:32;;;;;;;8.03;7.10;;;18.10;99.90;;;;;;5073146;28;20414;-82
2021/06/05 05:16:58;;;;;;;8.00;7.17;;;18.20;99.90;;;;;;5073212;28;20917;-84
2021/06/05 05:19:24;;;;;;;8.20;7.50;;;18.30;99.90;;;;;;5073344;28;20425;-84
2021/06/05 05:21:49;;;;;;;8.10;7.10;;;18.50;99.90;;;;;;5073273;28;20230;-82
2021/06/05 05:24:15;;;;;;;8.23;7.20;;;18.60;99.90;;;;;;5072711;28;20210;-82
2021/06/05 05:26:40;;;;;;;8.43;7.70;;;18.60;96.90;;;;;;5073134;28;20243;-87
2021/06/05 05:29:06;;;;;;;8.43;7.53;;;18.70;99.90;;;;;;5073144;28;20587;-86
2021/06/05 05:31:32;;;;;;;6.67;6.13;;;18.90;99.90;;;;;;5073119;28;20168;-84
2021/06/05 05:34:00;;;;;;;9.80;7.17;;;19.10;99.90;;;;;;5073066;28;20176;-83
2021/06/05 05:36:28;;;;;;;7.57;6.87;;;19.30;99.90;;;;;;5073002;28;20707;-85
2021/06/05 05:38:55;;;;;;;6.50;5.80;;;19.40;99.80;;;;;;5072695;28;20507;-85
2021/06/05 05:41:22;;;;;;;9.20;6.30;;;19.60;45.80;;;;;;5073122;28;20419;-88
2021/06/05 05:43:48;;;;;;;12.03;6.33;;;19.80;28.80;;;;;;5072742;28;20590;-84
2021/06/05 05:46:14;;;;;;;7.30;6.70;;;20.20;26.60;;;;;;5072919;28;20948;-86
2021/06/05 05:48:40;;;;;;;7.63;6.80;;;20.20;33.70;;;;;;5072818;28;20196;-85
2021/06/05 05:51:10;;;;;;;8.47;7.83;;;20.30;76.20;;;;;;5072959;28;20179;-85
2021/06/05 05:53:39;;;;;;;7.03;6.33;;;20.40;28.70;;;;;;5072554;28;20417;-86
2021/06/05 05:56:05;;;;;;;7.30;5.93;;;20.70;1.00;;;;;;5072394;28;20421;-86
2021/06/05 05:58:36;;;;;;;6.57;6.07;;;20.90;9.40;;;;;;5072219;28;20451;-87
2021/06/05 06:01:04;;;;;;;7.40;6.73;;;21.00;1.00;;;;;;5072321;28;20512;-87
2021/06/05 06:03:30;;;;;;;7.43;6.33;;;21.00;38.20;;;;;;5072224;28;20758;-86
2021/06/05 06:05:56;;;;;;;6.80;5.93;;;21.20;34.90;;;;;;5071857;28;20444;-86
2021/06/05 06:08:22;;;;;;;6.47;5.87;;;21.30;23.30;;;;;;5053705;28;20415;-86
2021/06/05 06:10:49;;;;;;;6.40;5.80;;;21.40;12.90;;;;;;5071812;28;20213;-86
2021/06/05 06:13:15;;;;;;;8.10;5.90;;;21.50;1.00;;;;;;5072047;28;20422;-87
2021/06/05 06:15:41;;;;;;;6.43;5.93;;;21.80;1.00;;;;;;5075203;28;20483;-86
2021/06/05 06:18:11;;;;;;;6.73;6.17;;;22.00;1.00;;;;;;5073473;28;20291;-87
2021/06/05 06:20:43;;;;;;;5.93;5.43;;;22.00;1.00;;;;;;5076102;28;20583;-84
2021/06/05 06:23:24;;;;;;;6.67;5.27;;;22.30;1.00;;;;;;5073209;28;20426;-85
2021/06/05 06:25:51;;;;;;;6.17;5.53;;;22.60;1.00;;;;;;5073490;28;20436;-86
2021/06/05 06:28:21;;;;;;;6.43;5.67;;;22.60;1.00;;;;;;5075710;28;20412;-86
2021/06/05 06:30:48;;;;;;;7.97;5.70;;;22.80;1.00;;;;;;5058115;28;20788;-87
2021/06/05 06:33:14;;;;;;;6.20;5.60;;;22.90;1.00;;;;;;5075943;28;20432;-87
2021/06/05 06:35:41;;;;;;;5.47;4.97;;;23.10;1.00;;;;;;5075943;28;20780;-89
2021/06/05 06:38:14;;;;;;;5.33;4.83;;;23.10;1.00;;;;;;5075491;28;20424;-87
2021/06/05 06:40:40;;;;;;;5.80;5.30;;;23.30;1.00;;;;;;5076135;28;20503;-85
2021/06/05 06:43:08;;;;;;;7.17;5.40;;;23.50;1.00;;;;;;5076096;28;20967;-86
2021/06/05 06:45:34;;;;;;;6.00;5.40;;;23.80;1.00;;;;;;5076054;28;20986;-86
2021/06/05 06:47:59;;;;;;;6.23;5.37;;;24.10;1.00;;;;;;5076392;28;20418;-88
2021/06/05 06:50:29;;;;;;;5.60;5.10;;;24.20;99.90;;;;;;5074803;28;20201;-86
2021/06/05 06:52:55;;;;;;;5.60;4.73;;;24.40;1.00;;;;;;5075152;28;20175;-88
2021/06/05 06:55:23;;;;;;;5.07;4.67;;;24.90;1.00;;;;;;5076168;28;20472;-89
2021/06/05 06:57:49;;;;;;;6.03;4.83;;;25.40;46.20;;;;;;5076181;28;20410;-86
2021/06/05 07:00:28;;;;;;;5.63;5.13;;;25.90;99.90;;;;;;5076124;28;20421;-89
2021/06/05 07:02:54;;;;;;;6.23;5.63;;;26.10;1.00;;;;;;5076095;28;20410;-87
2021/06/05 07:05:20;;;;;;;4.50;4.20;;;26.70;99.90;;;;;;5075903;28;20473;-88
2021/06/05 07:07:48;;;;;;;4.83;4.40;;;26.90;99.90;;;;;;5075777;28;20407;-90
2021/06/05 07:10:18;;;;;;;5.20;4.50;;;27.40;1.00;;;;;;5075987;28;20410;-90
2021/06/05 07:12:44;;;;;;;5.37;4.87;;;27.50;1.00;;;;;;5076053;28;20408;-88
2021/06/05 07:15:11;;;;;;;5.07;4.67;;;27.20;1.00;;;;;;5076031;28;20416;-92
2021/06/05 07:17:36;;;;;;;4.97;4.57;;;27.80;1.00;;;;;;5076270;28;20415;-88
2021/06/05 07:20:04;;;;;;;5.03;4.53;;;28.00;99.90;;;;;;5075742;28;20934;-86
2021/06/05 07:22:29;;;;;;;6.30;4.50;;;28.20;1.00;;;;;;5075168;28;20184;-88
2021/06/05 07:24:55;;;;;;;7.63;4.60;;;27.60;99.90;;;;;;5075234;28;20831;-87
2021/06/05 07:27:20;;;;;;;4.23;3.83;;;28.10;99.90;;;;;;5074631;28;20260;-89
2021/06/05 07:29:46;;;;;;;5.00;3.80;;;28.60;1.00;;;;;;5075668;28;20169;-85
2021/06/05 07:32:12;;;;;;;5.07;3.97;;;28.70;1.00;;;;;;5075662;28;20165;-88
2021/06/05 07:34:38;;;;;;;4.10;3.70;;;28.80;1.00;;;;;;5075630;28;20177;-88
2021/06/05 07:37:09;;;;;;;4.00;3.60;;;28.80;1.00;;;;;;5075049;28;20185;-89
2021/06/05 07:39:36;;;;;;;3.67;3.40;;;29.10;99.90;;;;;;5075784;28;20532;-88
2021/06/05 07:42:03;;;;;;;4.07;3.77;;;28.90;1.00;;;;;;5075788;28;20411;-89
2021/06/05 07:44:30;;;;;;;4.40;4.00;;;29.30;1.00;;;;;;5075426;28;20561;-88
2021/06/05 07:46:58;;;;;;;5.20;3.60;;;28.90;99.90;;;;;;5075217;28;20422;-87
2021/06/05 07:49:30;;;;;;;3.90;3.60;;;29.00;99.90;;;;;;5074904;28;20404;-89
2021/06/05 07:51:57;;;;;;;5.10;4.40;;;29.00;99.90;;;;;;5074801;28;20444;-87
2021/06/05 07:54:22;;;;;;;4.00;3.50;;;29.30;99.90;;;;;;5075082;28;20403;-89
2021/06/05 07:56:49;;;;;;;3.70;3.40;;;29.40;1.00;;;;;;5057044;28;20408;-87
2021/06/05 07:59:18;;;;;;;3.87;3.57;;;29.60;99.90;;;;;;5074868;28;20201;-86
2021/06/05 08:01:43;;;;;;;5.30;4.13;;;29.40;99.90;;;;;;5074913;28;20469;-87
2021/06/05 08:04:09;;;;;;;4.23;3.87;;;29.30;99.90;;;;;;5074704;28;20549;-85
2021/06/05 08:06:35;;;;;;;5.10;4.10;;;29.10;99.90;;;;;;5074438;28;20165;-86
2021/06/05 08:09:01;;;;;;;3.90;3.60;;;29.40;99.90;;;;;;5056629;28;20931;-88
2021/06/05 08:11:26;;;;;;;3.87;3.40;;;29.70;99.90;;;;;;5074404;28;20298;-90
2021/06/05 08:13:52;;;;;;;4.50;4.10;;;29.20;99.90;;;;;;5074543;28;20290;-88
2021/06/05 08:16:17;;;;;;;3.40;3.20;;;29.70;99.90;;;;;;5056704;28;20180;-88
2021/06/05 08:18:43;;;;;;;6.20;3.70;;;29.50;99.90;;;;;;5074459;28;20259;-87
2021/06/05 08:21:12;;;;;;;4.40;4.10;;;29.80;99.90;;;;;;5056592;28;20169;-90
2021/06/05 08:23:39;;;;;;;3.80;3.40;;;29.70;99.90;;;;;;5073945;28;20419;-84
2021/06/05 08:26:06;;;;;;;3.90;3.60;;;30.00;99.90;;;;;;5074376;28;20994;-87
2021/06/05 08:28:32;;;;;;;3.37;3.10;;;30.60;99.90;;;;;;5074321;28;20446;-87
2021/06/05 08:31:02;;;;;;;3.63;3.20;;;30.80;99.90;;;;;;5074233;28;20473;-85
2021/06/05 08:33:28;;;;;;;4.30;3.90;;;30.90;99.90;;;;;;5074262;28;20419;-84
2021/06/05 08:35:54;;;;;;;3.40;3.10;;;31.50;99.90;;;;;;5074160;28;20746;-83
2021/06/05 08:38:23;;;;;;;3.60;3.30;;;31.40;99.90;;;;;;5073332;28;20244;-83
2021/06/05 08:41:07;;;;;;;4.23;3.40;;;31.40;99.90;;;;;;5073922;28;20169;-83
2021/06/05 08:43:55;;;;;;;3.70;3.20;;;31.40;92.00;;;;;;5073933;28;20460;-83
2021/06/05 08:46:30;;;;;;;4.30;3.57;;;31.40;99.90;;;;;;5056049;28;20485;-83
2021/06/05 08:48:59;;;;;;;4.07;3.23;;;31.70;91.70;;;;;;5055873;28;20978;-85
2021/06/05 08:51:45;;;;;;;3.70;3.40;;;31.10;93.30;;;;;;5073665;28;20556;-84
2021/06/05 08:54:28;;;;;;;4.23;3.23;;;31.20;97.10;;;;;;5073755;28;20792;-83
2021/06/05 08:56:54;;;;;;;3.60;3.30;;;32.00;99.90;;;;;;5073805;28;20407;-83
2021/06/05 08:59:24;;;;;;;4.10;3.80;;;31.70;44.20;;;;;;5073617;28;20918;-84
2021/06/05 09:01:50;;;;;;;3.57;3.27;;;31.70;53.20;;;;;;5055716;28;20165;-84
2021/06/05 09:04:23;;;;;;;3.83;3.53;;;31.10;46.10;;;;;;5055503;28;20451;-83
2021/06/05 09:06:56;;;;;;;3.70;3.40;;;31.40;99.90;;;;;;5073133;28;20799;-86
2021/06/05 09:09:35;;;;;;;3.67;3.20;;;31.00;60.70;;;;;;5073532;28;20403;-83
2021/06/05 09:12:02;;;;;;;4.97;3.97;;;31.40;58.40;;;;;;5073340;28;20518;-84
2021/06/05 09:14:28;;;;;;;3.70;3.40;;;31.90;60.20;;;;;;5055431;28;20815;-82
2021/06/05 09:16:55;;;;;;;5.20;4.70;;;31.30;50.70;;;;;;5055703;28;20800;-83
2021/06/05 09:19:27;;;;;;;4.00;3.70;;;31.50;61.10;;;;;;5072885;28;21032;-83
2021/06/05 09:22:12;;;;;;;4.40;3.77;;;32.10;68.80;;;;;;5070758;28;20411;-84
2021/06/05 09:24:51;;;;;;;4.17;3.50;;;32.90;72.00;;;;;;5071695;28;20810;-88
2021/06/05 09:27:17;;;;;;;4.23;3.93;;;33.00;43.30;;;;;;5071738;28;20495;-90
2021/06/05 09:29:57;;;;;;;4.27;3.97;;;31.90;75.90;;;;;;5072741;28;20901;-87
2021/06/05 09:32:27;;;;;;;4.90;3.70;;;32.10;67.00;;;;;;5072334;28;20173;-86
2021/06/05 09:35:30;;;;;;;3.40;3.10;;;33.00;74.70;;;;;;5071999;28;20399;-88
2021/06/05 09:38:30;;;;;;;6.00;3.97;;;32.80;35.50;;;;;;5071755;28;20464;-85
2021/06/05 09:41:12;;;;;;;6.23;4.07;;;32.40;21.80;;;;;;5070396;28;20817;-87
2021/06/05 09:43:39;;;;;;;4.13;3.47;;;32.80;15.40;;;;;;5070549;28;20404;-87
2021/06/05 09:46:10;;;;;;;5.80;3.60;;;32.80;24.40;;;;;;5071682;28;20472;-86
2021/06/05 09:48:41;;;;;;;4.10;3.80;;;32.80;28.20;;;;;;5071165;28;20911;-86
2021/06/05 09:51:47;;;;;;;4.63;4.20;;;33.40;27.90;;;;;;5069068;28;20785;-86
2021/06/05 09:54:30;;;;;;;4.50;4.17;;;33.30;9.20;;;;;;4968834;28;20947;-87
2021/06/05 09:57:13;;;;;;;4.03;3.53;;;33.00;10.90;;;;;;5048316;28;20454;-85
2021/06/05 09:59:39;;;;;;;7.83;3.53;;;33.20;22.40;;;;;;5052730;28;20932;-87
2021/06/05 10:02:21;;;;;;;3.70;3.40;;;33.50;36.90;;;;;;5053609;28;20430;-88
2021/06/05 10:05:14;;;;;;;3.90;3.60;;;33.20;23.70;;;;;;5071327;28;20455;-85
2021/06/05 10:07:40;;;;;;;4.90;3.30;;;33.40;26.50;;;;;;5052574;28;20855;-84
2021/06/05 10:10:21;;;;;;;4.00;3.60;;;33.90;9.30;;;;;;5071455;28;20503;-87
2021/06/05 10:12:50;;;;;;;3.93;3.40;;;33.90;11.40;;;;;;5069458;28;20180;-88
2021/06/05 10:15:20;;;;;;;3.70;3.40;;;33.60;8.70;;;;;;5072061;28;20422;-86
2021/06/05 10:17:53;;;;;;;4.03;3.73;;;34.10;2.90;;;;;;5071861;28;20404;-86
2021/06/05 10:20:19;;;;;;;4.03;3.73;;;33.60;1.00;;;;;;5071707;28;20407;-87
2021/06/05 10:22:45;;;;;;;3.70;3.50;;;33.60;3.90;;;;;;5053159;28;20431;-86
2021/06/05 10:25:18;;;;;;;3.20;3.00;;;33.90;1.00;;;;;;5071032;28;20223;-85
2021/06/05 10:27:47;;;;;;;3.67;3.20;;;34.40;1.00;;;;;;5070773;28;20804;-87
2021/06/05 10:30:42;;;;;;;3.33;3.13;;;34.40;1.00;;;;;;5053010;28;20427;-89
2021/06/05 10:33:16;;;;;;;3.40;3.17;;;34.50;1.00;;;;;;5072665;28;20415;-88
2021/06/05 10:35:44;;;;;;;3.43;3.23;;;34.20;1.00;;;;;;5072597;28;20899;-86
2021/06/05 10:38:17;;;;;;;3.33;3.13;;;34.80;1.00;;;;;;5072061;28;20433;-87
2021/06/05 10:40:46;;;;;;;5.77;3.23;;;34.30;1.00;;;;;;5072562;28;20445;-86
2021/06/05 10:43:15;;;;;;;3.67;3.40;;;34.60;1.00;;;;;;5072560;28;20411;-86
2021/06/05 10:45:43;;;;;;;3.37;3.17;;;35.40;1.00;;;;;;5072407;28;20993;-85
2021/06/05 10:48:16;;;;;;;4.20;3.53;;;34.90;1.00;;;;;;5072509;28;20414;-86
2021/06/05 10:50:49;;;;;;;4.17;2.90;;;35.30;1.00;;;;;;5072450;28;20499;-86
2021/06/05 10:53:27;;;;;;;3.47;3.20;;;35.20;1.00;;;;;;5072066;28;20407;-87
2021/06/05 10:55:57;;;;;;;3.23;2.93;;;34.50;1.00;;;;;;5054485;28;20442;-86
2021/06/05 10:58:25;;;;;;;3.60;3.40;;;34.80;1.00;;;;;;5072476;28;20414;-85
2021/06/05 11:00:51;;;;;;;3.07;2.87;;;34.70;1.00;;;;;;5073974;28;20941;-86
2021/06/05 11:03:23;;;;;;;3.63;3.03;;;33.90;1.00;;;;;;5075909;28;20498;-86
2021/06/05 11:06:00;;;;;;;3.70;2.77;;;33.70;1.00;;;;;;5075642;28;20565;-86
2021/06/05 11:08:32;;;;;;;10.97;3.20;;;33.60;1.00;;;;;;5075812;28;20411;-85
2021/06/05 11:11:00;;;;;;;3.30;2.83;;;34.20;1.00;;;;;;5075554;28;20463;-86
2021/06/05 11:13:32;;;;;;;2.70;2.50;;;34.80;1.00;;;;;;5057815;28;20450;-85
2021/06/05 11:16:00;;;;;;;3.20;2.83;;;34.90;1.00;;;;;;5075792;28;20414;-88
2021/06/05 11:18:31;;;;;;;3.27;3.00;;;34.80;1.00;;;;;;5057654;28;20817;-85
2021/06/05 11:21:18;;;;;;;3.07;2.80;;;34.90;1.00;;;;;;5057771;28;20934;-85
2021/06/05 11:24:04;;;;;;;2.63;2.13;;;34.40;1.00;;;;;;5075386;28;20411;-86
2021/06/05 11:26:36;;;;;;;3.30;3.10;;;34.30;1.00;;;;;;5075283;28;20536;-84
2021/06/05 11:29:15;;;;;;;4.33;3.43;;;34.60;1.00;;;;;;5074567;28;20419;-85
2021/06/05 11:31:44;;;;;;;3.10;2.90;;;34.10;1.00;;;;;;5069859;28;20427;-86
2021/06/05 11:34:30;;;;;;;3.03;2.83;;;34.10;1.00;;;;;;5071688;28;20430;-85
2021/06/05 11:37:07;;;;;;;3.40;2.60;;;34.40;1.00;;;;;;5073481;28;20419;-84
2021/06/05 11:39:32;;;;;;;3.40;3.07;;;34.60;1.00;;;;;;5074585;28;20448;-86
2021/06/05 11:42:01;;;;;;;2.47;2.27;;;35.50;1.00;;;;;;5074314;28;20506;-84
2021/06/05 11:44:35;;;;;;;3.13;2.57;;;35.10;1.00;;;;;;5072054;28;20189;-83
2021/06/05 11:47:21;;;;;;;2.57;2.37;;;35.10;1.00;;;;;;5074568;28;20418;-85
2021/06/05 11:49:52;;;;;;;2.87;2.67;;;34.80;1.00;;;;;;5040768;28;20410;-86
2021/06/05 11:52:31;;;;;;;3.50;2.53;;;35.20;1.00;;;;;;5073832;28;20411;-86
2021/06/05 11:54:59;;;;;;;2.70;2.50;;;35.20;1.00;;;;;;5073877;28;20463;-87
2021/06/05 11:57:31;;;;;;;5.43;2.73;;;34.60;1.00;;;;;;5071254;28;20421;-85
2021/06/05 12:00:05;;;;;;;2.90;2.70;;;34.60;1.00;;;;;;5056194;28;20416;-85
2021/06/05 12:02:40;;;;;;;4.30;2.97;;;34.90;1.00;;;;;;5072357;28;20438;-84
2021/06/05 12:05:23;;;;;;;3.43;3.23;;;34.90;1.00;;;;;;5053536;28;20548;-85
2021/06/05 12:07:50;;;;;;;5.83;3.43;;;34.90;1.00;;;;;;5071575;28;20823;-85
2021/06/05 12:10:40;;;;;;;2.70;2.50;;;35.10;1.00;;;;;;5073844;28;21108;-86
2021/06/05 12:13:19;;;;;;;2.83;2.63;;;34.80;1.00;;;;;;5070714;28;20443;-85
2021/06/05 12:15:45;;;;;;;2.93;2.67;;;34.60;1.00;;;;;;5071473;28;20414;-86
2021/06/05 12:18:27;;;;;;;3.83;3.47;;;34.70;1.00;;;;;;5055970;28;20415;-86
2021/06/05 12:20:58;;;;;;;2.97;2.77;;;;;;;;;;5071965;28;20484;-85
2021/06/05 12:23:33;;;;;;;2.90;2.60;;;35.20;1.00;;;;;;5073925;28;20453;-86
2021/06/05 12:26:04;;;;;;;3.70;3.00;;;34.70;1.00;;;;;;5074001;28;20462;-86
2021/06/05 12:28:33;;;;;;;4.27;3.10;;;35.10;1.00;;;;;;5053871;28;20404;-86
2021/06/05 12:31:13;;;;;;;3.10;2.90;;;34.10;1.00;;;;;;5073713;28;20423;-84
2021/06/05 12:33:39;;;;;;;3.17;2.83;;;33.80;1.00;;;;;;5072810;28;20461;-84
2021/06/05 12:36:37;;;;;;;3.00;2.80;;;33.90;1.00;;;;;;5073193;28;20494;-85
2021/06/05 12:39:16;;;;;;;2.87;2.53;;;34.40;1.00;;;;;;5055596;28;20438;-85
2021/06/05 12:41:44;;;;;;;3.33;2.70;;;34.40;1.00;;;;;;5073579;28;20411;-85
2021/06/05 12:44:22;;;;;;;3.00;2.43;;;33.50;1.00;;;;;;5073415;28;20910;-87
2021/06/05 12:46:48;;;;;;;2.70;2.50;;;33.20;1.00;;;;;;5070951;28;20802;-84
2021/06/05 12:49:16;;;;;;;2.87;2.67;;;33.70;1.00;;;;;;5073453;28;20436;-83
2021/06/05 12:51:48;;;;;;;2.50;2.30;;;33.80;1.00;;;;;;5073098;28;21733;-87
2021/06/05 12:54:23;;;;;;;3.37;3.07;;;34.60;1.00;;;;;;5070215;28;20439;-85
2021/06/05 12:56:49;;;;;;;3.00;2.80;;;34.30;1.00;;;;;;5047868;28;20410;-84
2021/06/05 12:59:30;;;;;;;2.80;2.60;;;33.50;1.00;;;;;;5054046;28;20418;-85
2021/06/05 13:01:56;;;;;;;2.67;2.50;;;33.80;1.00;;;;;;5039418;28;20176;-85
2021/06/05 13:04:27;;;;;;;3.63;2.73;;;33.30;1.00;;;;;;5073528;28;20447;-86